createdAt,value
2023-03-30T00:00:51.783Z,2.33
2023-03-30T00:03:19.679Z,2.63
2023-03-30T00:05:46.655Z,2.63
2023-03-30T00:08:18.445Z,2.33
2023-03-30T00:10:46.310Z,2.47
2023-03-30T00:13:13.187Z,2.47
2023-03-30T00:15:41.244Z,2.30
2023-03-30T00:18:09.306Z,2.20
2023-03-30T00:20:37.591Z,2.50
2023-03-30T00:23:04.691Z,2.47
2023-03-30T00:25:31.405Z,2.72
2023-03-30T00:27:58.047Z,2.40
2023-03-30T00:30:24.697Z,2.63
2023-03-30T00:32:51.744Z,2.38
2023-03-30T00:35:18.562Z,2.50
2023-03-30T00:37:45.751Z,2.47
2023-03-30T00:40:16.975Z,2.30
2023-03-30T00:42:43.656Z,1.88
2023-03-30T00:45:26.446Z,2.10
2023-03-30T00:48:07.306Z,2.40
2023-03-30T00:50:43.282Z,2.05
2023-03-30T00:53:47.162Z,2.20
2023-03-30T00:56:17.524Z,2.50
2023-03-30T00:58:45.275Z,2.10
2023-03-30T01:01:18.930Z,2.22
2023-03-30T01:03:48.214Z,2.50
2023-03-30T01:06:17.974Z,2.40
2023-03-30T01:08:45.340Z,2.40
2023-03-30T01:11:12.445Z,1.92
2023-03-30T01:13:44.571Z,2.05
2023-03-30T01:16:26.476Z,2.05
2023-03-30T01:18:58.892Z,2.00
2023-03-30T01:22:04.712Z,2.10
2023-03-30T01:24:44.289Z,1.80
2023-03-30T01:27:46.415Z,2.10
2023-03-30T01:30:31.834Z,2.20
2023-03-30T01:33:16.730Z,2.30
2023-03-30T01:36:05.916Z,2.20
2023-03-30T01:38:44.416Z,2.13
2023-03-30T01:41:39.897Z,2.50
2023-03-30T01:44:28.898Z,1.98
2023-03-30T01:47:14.699Z,2.20
2023-03-30T01:49:55.890Z,2.38
2023-03-30T01:52:29.048Z,1.90
2023-03-30T01:55:04.896Z,2.17
2023-03-30T01:57:41.268Z,1.80
2023-03-30T02:00:16.119Z,2.20
2023-03-30T02:02:48.971Z,2.22
2023-03-30T02:05:18.455Z,2.13
2023-03-30T02:08:12.295Z,2.10
2023-03-30T02:10:40.838Z,1.95
2023-03-30T02:13:08.477Z,1.60
2023-03-30T02:15:39.877Z,1.80
2023-03-30T02:18:06.774Z,2.17
2023-03-30T02:20:34.548Z,2.30
2023-03-30T02:23:03.695Z,2.10
2023-03-30T02:25:30.613Z,2.05
2023-03-30T02:27:57.470Z,1.88
2023-03-30T02:30:24.381Z,1.80
2023-03-30T02:32:56.330Z,1.80
2023-03-30T02:36:02.028Z,1.88
2023-03-30T02:38:51.643Z,2.10
2023-03-30T02:41:38.038Z,1.90
2023-03-30T02:44:30.609Z,1.90
2023-03-30T02:47:07.422Z,1.48
2023-03-30T02:49:55.219Z,1.90
2023-03-30T02:52:22.799Z,1.70
2023-03-30T02:55:03.087Z,1.88
2023-03-30T02:58:13.955Z,1.85
2023-03-30T03:01:23.003Z,1.50
2023-03-30T03:04:02.001Z,1.83
2023-03-30T03:06:34.537Z,1.67
2023-03-30T03:09:01.742Z,1.52
2023-03-30T03:11:31.694Z,1.60
2023-03-30T03:13:59.467Z,1.75
2023-03-30T03:16:28.440Z,1.88
2023-03-30T03:19:13.936Z,1.73
2023-03-30T03:21:40.945Z,1.50
2023-03-30T03:24:08.451Z,1.55
2023-03-30T03:26:53.345Z,1.58
2023-03-30T03:29:23.096Z,1.60
2023-03-30T03:31:49.960Z,1.70
2023-03-30T03:34:18.556Z,1.60
2023-03-30T03:36:58.977Z,1.40
2023-03-30T03:39:28.416Z,1.58
2023-03-30T03:42:07.144Z,1.30
2023-03-30T03:44:40.465Z,1.60
2023-03-30T03:47:07.573Z,1.48
2023-03-30T03:49:34.254Z,1.60
2023-03-30T03:52:01.119Z,1.30
2023-03-30T03:54:28.024Z,1.50
2023-03-30T03:56:55.150Z,1.70
2023-03-30T03:59:22.424Z,1.50
2023-03-30T04:01:49.328Z,1.50
2023-03-30T04:04:16.185Z,1.30
2023-03-30T04:06:42.965Z,1.50
2023-03-30T04:09:09.688Z,1.48
2023-03-30T04:11:55.018Z,1.10
2023-03-30T04:14:41.931Z,1.40
2023-03-30T04:17:17.853Z,1.50
2023-03-30T04:20:04.523Z,1.40
2023-03-30T04:23:01.992Z,1.52
2023-03-30T04:26:01.750Z,1.40
2023-03-30T04:28:47.027Z,1.30
2023-03-30T04:31:34.939Z,1.30
2023-03-30T04:34:09.492Z,1.08
2023-03-30T04:36:38.365Z,1.40
2023-03-30T04:39:20.954Z,1.30
2023-03-30T04:42:06.226Z,1.60
2023-03-30T04:44:41.918Z,1.23
2023-03-30T04:47:41.176Z,1.40
2023-03-30T04:53:29.352Z,1.38
2023-03-30T04:56:14.362Z,1.33
2023-03-30T04:59:10.969Z,1.40
2023-03-30T05:02:06.512Z,1.40
2023-03-30T05:57:09.519Z,1.20
2023-03-30T05:59:55.286Z,1.00
2023-03-30T06:02:48.022Z,1.17
2023-03-30T06:05:19.216Z,1.33
2023-03-30T06:10:27.676Z,1.10
2023-03-30T06:12:56.170Z,1.20
2023-03-30T06:15:33.695Z,1.23
2023-03-30T06:18:13.597Z,1.15
2023-03-30T06:20:48.966Z,1.50
2023-03-30T06:23:16.529Z,1.30
2023-03-30T06:25:53.065Z,1.45
2023-03-30T06:28:25.782Z,1.30
2023-03-30T06:30:53.718Z,1.30
2023-03-30T06:33:26.157Z,1.30
2023-03-30T06:35:57.302Z,1.50
2023-03-30T06:38:24.482Z,1.27
2023-03-30T06:40:53.008Z,1.55
2023-03-30T06:45:58.961Z,1.70
2023-03-30T06:48:26.739Z,1.70
2023-03-30T06:51:13.870Z,1.70
2023-03-30T06:56:08.961Z,2.00
2023-03-30T06:58:43.694Z,2.00
2023-03-30T07:01:16.102Z,1.80
2023-03-30T07:04:12.092Z,1.77
2023-03-30T07:07:14.499Z,1.50
2023-03-30T07:09:42.158Z,1.40
2023-03-30T07:12:09.151Z,1.52
2023-03-30T07:14:36.177Z,1.50
2023-03-30T07:17:03.256Z,1.50
2023-03-30T07:19:30.479Z,1.50
2023-03-30T07:21:57.387Z,1.42
2023-03-30T07:24:27.042Z,1.35
2023-03-30T07:26:54.059Z,1.48
2023-03-30T07:29:20.871Z,1.23
2023-03-30T07:31:52.525Z,1.65
2023-03-30T07:34:20.412Z,1.25
2023-03-30T07:36:54.717Z,1.50
2023-03-30T07:39:24.965Z,1.42
2023-03-30T07:41:51.746Z,1.40
2023-03-30T07:44:18.607Z,1.27
2023-03-30T07:46:53.845Z,1.40
2023-03-30T07:49:25.807Z,1.40
2023-03-30T07:51:54.026Z,0.93
2023-03-30T07:54:29.257Z,1.33
2023-03-30T07:57:08.881Z,1.20
2023-03-30T07:59:35.900Z,1.50
2023-03-30T08:02:15.923Z,1.50
2023-03-30T08:04:50.010Z,1.52
2023-03-30T08:07:23.651Z,1.48
2023-03-30T08:09:55.116Z,1.40
2023-03-30T08:12:22.394Z,1.25
2023-03-30T08:14:49.290Z,1.65
2023-03-30T08:17:16.249Z,1.50
2023-03-30T08:19:43.116Z,1.48
2023-03-30T08:22:09.923Z,1.30
2023-03-30T08:24:37.601Z,1.20
2023-03-30T08:27:10.862Z,1.67
2023-03-30T08:29:37.573Z,1.83
2023-03-30T08:32:04.344Z,1.65
2023-03-30T08:34:31.066Z,1.67
2023-03-30T08:36:58.162Z,1.80
2023-03-30T08:39:24.985Z,1.35
2023-03-30T08:42:29.185Z,1.58
2023-03-30T08:44:58.094Z,1.77
2023-03-30T08:47:48.904Z,1.48
2023-03-30T08:50:29.932Z,1.70
2023-03-30T08:52:56.747Z,1.63
2023-03-30T08:55:32.105Z,1.70
2023-03-30T08:58:19.710Z,1.80
2023-03-30T09:01:42.433Z,1.90
2023-03-30T09:04:23.789Z,2.10
2023-03-30T09:06:57.473Z,2.00
2023-03-30T09:09:30.451Z,2.00
2023-03-30T09:12:08.700Z,2.28
2023-03-30T09:14:40.742Z,2.08
2023-03-30T09:17:14.429Z,2.03
2023-03-30T09:20:07.065Z,1.88
2023-03-30T09:22:41.788Z,2.25
2023-03-30T09:25:18.367Z,2.50
2023-03-30T09:28:02.202Z,2.58
2023-03-30T09:30:40.908Z,2.53
2023-03-30T09:33:34.056Z,2.45
2023-03-30T09:39:35.458Z,2.70
2023-03-30T09:42:13.801Z,2.30
2023-03-30T09:44:52.994Z,3.00
2023-03-30T09:47:27.810Z,3.15
2023-03-30T09:50:00.034Z,3.30
2023-03-30T09:52:29.799Z,2.70
2023-03-30T09:54:57.410Z,2.90
2023-03-30T09:57:32.764Z,2.45
2023-03-30T10:00:01.322Z,3.03
2023-03-30T10:02:31.372Z,2.60
2023-03-30T10:05:00.622Z,2.60
2023-03-30T10:07:33.480Z,2.53
2023-03-30T10:10:12.487Z,2.70
2023-03-30T10:12:39.463Z,2.40
2023-03-30T10:15:12.624Z,2.67
2023-03-30T10:17:41.006Z,2.80
2023-03-30T10:20:21.770Z,2.60
2023-03-30T10:22:50.193Z,2.72
2023-03-30T10:25:24.009Z,2.53
2023-03-30T10:27:53.673Z,2.78
2023-03-30T10:30:24.788Z,2.60
2023-03-30T10:32:53.552Z,2.55
2023-03-30T10:35:26.647Z,2.50
2023-03-30T10:37:56.717Z,2.35
2023-03-30T10:40:32.575Z,2.60
2023-03-30T10:43:01.288Z,2.60
2023-03-30T10:45:36.685Z,2.47
2023-03-30T10:48:28.832Z,2.28
2023-03-30T10:50:58.184Z,1.90
2023-03-30T10:56:39.716Z,2.13
2023-03-30T10:59:08.871Z,2.50
2023-03-30T11:01:54.495Z,2.22
2023-03-30T11:04:24.726Z,2.20
2023-03-30T11:06:54.621Z,2.10
2023-03-30T11:09:38.167Z,2.10
2023-03-30T11:12:12.977Z,2.20
2023-03-30T11:14:39.874Z,2.00
2023-03-30T11:17:21.484Z,1.90
2023-03-30T11:20:01.696Z,2.03
2023-03-30T11:22:41.491Z,2.10
2023-03-30T11:25:21.578Z,1.80
2023-03-30T11:27:58.392Z,1.90
2023-03-30T11:30:30.193Z,2.10
2023-03-30T11:33:12.024Z,1.67
2023-03-30T11:35:45.710Z,1.73
2023-03-30T11:38:12.544Z,1.65
2023-03-30T11:40:46.430Z,1.88
2023-03-30T11:43:18.488Z,1.75
2023-03-30T11:46:06.245Z,1.73
2023-03-30T11:48:45.077Z,2.05
2023-03-30T11:51:53.766Z,1.88
2023-03-30T11:54:23.419Z,2.25
2023-03-30T11:57:00.689Z,2.25
2023-03-30T11:59:48.943Z,1.88
2023-03-30T12:02:31.033Z,1.90
2023-03-30T12:05:06.607Z,1.90
2023-03-30T12:07:48.440Z,1.70
2023-03-30T12:10:25.184Z,1.70
2023-03-30T12:12:55.690Z,2.17
2023-03-30T12:15:45.470Z,1.83
2023-03-30T12:18:18.111Z,1.63
2023-03-30T12:20:47.496Z,1.55
2023-03-30T12:23:35.617Z,1.77
2023-03-30T12:26:24.510Z,1.92
2023-03-30T12:29:26.225Z,1.75
2023-03-30T12:32:05.049Z,1.58
2023-03-30T12:34:37.162Z,1.70
2023-03-30T12:37:37.519Z,1.58
2023-03-30T12:40:14.614Z,1.50
2023-03-30T12:42:55.715Z,1.40
2023-03-30T12:45:28.902Z,1.45
2023-03-30T12:48:08.138Z,1.50
2023-03-30T12:51:03.660Z,1.60
2023-03-30T12:54:14.393Z,1.23
2023-03-30T12:57:06.828Z,1.30
2023-03-30T13:00:07.992Z,1.63
2023-03-30T13:02:56.884Z,1.13
2023-03-30T13:05:30.414Z,1.20
2023-03-30T13:08:01.556Z,1.50
2023-03-30T13:10:31.755Z,1.23
2023-03-30T13:13:01.458Z,1.20
2023-03-30T13:15:46.319Z,1.48
2023-03-30T13:18:13.005Z,1.42
2023-03-30T13:20:48.936Z,1.20
2023-03-30T13:23:15.756Z,1.20
2023-03-30T13:25:49.713Z,1.50
2023-03-30T13:28:44.147Z,1.40
2023-03-30T13:31:35.506Z,1.40
2023-03-30T13:34:43.522Z,1.33
2023-03-30T13:37:27.793Z,1.35
2023-03-30T13:40:27.305Z,1.42
2023-03-30T13:43:11.006Z,1.10
2023-03-30T13:45:43.759Z,1.10
2023-03-30T13:48:28.752Z,1.25
2023-03-30T13:51:04.663Z,1.13
2023-03-30T13:53:39.901Z,1.30
2023-03-30T13:56:09.568Z,1.40
2023-03-30T13:58:38.503Z,1.35
2023-03-30T14:01:14.113Z,1.45
2023-03-30T14:03:49.109Z,1.10
2023-03-30T14:06:21.324Z,1.02
2023-03-30T14:09:17.960Z,1.42
2023-03-30T14:12:14.117Z,1.30
2023-03-30T14:14:50.259Z,1.17
2023-03-30T14:17:23.127Z,1.52
2023-03-30T14:20:06.721Z,1.67
2023-03-30T14:22:40.674Z,1.50
2023-03-30T14:25:41.946Z,1.35
2023-03-30T14:28:28.856Z,1.42
2023-03-30T14:30:58.665Z,1.48
2023-03-30T14:33:25.776Z,1.20
2023-03-30T14:35:53.468Z,1.30
2023-03-30T14:38:22.217Z,1.38
2023-03-30T14:40:50.388Z,1.02
2023-03-30T14:43:22.073Z,1.23
2023-03-30T14:45:49.853Z,1.33
2023-03-30T14:48:23.591Z,1.20
2023-03-30T14:50:50.726Z,1.30
2023-03-30T14:53:25.417Z,1.30
2023-03-30T14:55:57.043Z,1.30
2023-03-30T14:58:30.014Z,1.30
2023-03-30T15:01:00.420Z,1.55
2023-03-30T15:03:34.325Z,1.20
2023-03-30T15:06:07.111Z,1.17
2023-03-30T15:08:39.498Z,1.35
2023-03-30T15:11:14.806Z,1.38
2023-03-30T15:13:44.521Z,1.30
2023-03-30T15:16:17.846Z,1.48
2023-03-30T15:18:44.729Z,1.40
2023-03-30T15:21:13.561Z,1.17
2023-03-30T15:23:43.304Z,1.17
2023-03-30T15:26:12.188Z,1.02
2023-03-30T15:28:52.307Z,1.30
2023-03-30T15:31:20.619Z,1.30
2023-03-30T15:34:00.922Z,1.43
2023-03-30T15:36:33.335Z,1.05
2023-03-30T15:39:01.211Z,1.15
2023-03-30T15:41:47.405Z,1.25
2023-03-30T15:44:21.514Z,1.00
2023-03-30T15:46:54.497Z,1.15
2023-03-30T15:49:25.335Z,1.10
2023-03-30T15:51:55.180Z,1.05
2023-03-30T15:54:34.501Z,1.10
2023-03-30T15:57:14.039Z,1.00
2023-03-30T15:59:46.861Z,1.00
2023-03-30T16:02:36.143Z,1.10
2023-03-30T16:05:05.104Z,1.20
2023-03-30T16:09:58.581Z,1.05
2023-03-30T16:12:27.691Z,0.90
2023-03-30T16:17:21.239Z,1.00
2023-03-30T16:19:47.897Z,1.05
2023-03-30T16:22:15.982Z,1.08
2023-03-30T16:24:43.059Z,1.10
2023-03-30T16:27:11.885Z,1.02
2023-03-30T16:29:38.895Z,1.00
2023-03-30T16:32:05.932Z,1.10
2023-03-30T16:34:32.746Z,1.00
2023-03-30T16:36:59.568Z,1.25
2023-03-30T16:39:28.952Z,1.10
2023-03-30T16:41:56.190Z,1.23
2023-03-30T16:44:24.782Z,1.08
2023-03-30T16:46:52.097Z,0.93
2023-03-30T16:49:24.379Z,0.98
2023-03-30T16:51:53.511Z,1.33
2023-03-30T16:54:31.526Z,1.10
2023-03-30T16:57:01.192Z,0.90
2023-03-30T16:59:30.593Z,1.00
2023-03-30T17:01:58.312Z,1.10
2023-03-30T17:04:25.163Z,1.05
2023-03-30T17:06:53.802Z,0.90
2023-03-30T17:09:20.990Z,1.27
2023-03-30T17:11:48.688Z,1.08
2023-03-30T17:14:16.343Z,0.90
2023-03-30T17:16:43.467Z,1.13
2023-03-30T17:19:12.909Z,0.95
2023-03-30T17:21:42.757Z,1.00
2023-03-30T17:24:11.197Z,1.08
2023-03-30T17:26:39.101Z,0.90
2023-03-30T17:29:05.916Z,0.90
2023-03-30T17:31:32.888Z,0.68
2023-03-30T17:33:59.768Z,1.20
2023-03-30T17:36:28.668Z,0.90
2023-03-30T17:38:56.486Z,0.80
2023-03-30T17:41:23.694Z,0.75
2023-03-30T17:43:51.587Z,0.80
2023-03-30T17:46:20.259Z,0.80
2023-03-30T17:48:48.018Z,0.80
2023-03-30T17:51:14.811Z,0.80
2023-03-30T17:53:41.609Z,1.00
2023-03-30T17:56:12.192Z,0.88
2023-03-30T17:58:39.180Z,0.80
2023-03-30T18:01:08.559Z,0.80
2023-03-30T18:03:38.514Z,0.90
2023-03-30T18:06:05.953Z,0.70
2023-03-30T18:08:33.059Z,0.82
2023-03-30T18:11:00.987Z,0.60
2023-03-30T18:13:29.599Z,0.85
2023-03-30T18:15:59.193Z,0.82
2023-03-30T18:18:29.570Z,0.82
2023-03-30T18:20:59.010Z,0.57
2023-03-30T18:23:25.992Z,0.70
2023-03-30T18:25:52.755Z,0.80
2023-03-30T18:28:29.166Z,0.70
2023-03-30T18:31:00.874Z,0.70
2023-03-30T18:33:28.349Z,0.75
2023-03-30T18:35:56.900Z,0.95
2023-03-30T18:38:25.671Z,0.60
2023-03-30T18:40:58.139Z,0.68
2023-03-30T18:43:26.532Z,0.60
2023-03-30T18:45:57.925Z,0.73
2023-03-30T18:48:27.636Z,0.60
2023-03-30T18:50:55.308Z,0.70
2023-03-30T18:53:24.676Z,0.60
2023-03-30T18:55:53.919Z,0.60
2023-03-30T18:58:26.419Z,0.77
2023-03-30T19:00:54.448Z,1.05
2023-03-30T19:03:22.825Z,0.70
2023-03-30T19:05:50.279Z,0.60
2023-03-30T19:08:20.208Z,0.80
2023-03-30T19:10:50.008Z,0.50
2023-03-30T19:13:19.364Z,0.68
2023-03-30T19:15:47.168Z,0.50
2023-03-30T19:18:15.047Z,0.90
2023-03-30T19:20:42.312Z,0.70
2023-03-30T19:23:12.698Z,0.45
2023-03-30T19:25:40.406Z,0.60
2023-03-30T19:28:08.439Z,0.50
2023-03-30T19:30:39.264Z,0.70
2023-03-30T19:33:09.484Z,0.60
2023-03-30T19:35:36.967Z,0.70
2023-03-30T19:38:04.216Z,0.40
2023-03-30T19:40:31.037Z,0.70
2023-03-30T19:42:57.971Z,0.70
2023-03-30T19:45:24.905Z,0.65
2023-03-30T19:47:52.359Z,0.55
2023-03-30T19:50:20.870Z,0.50
2023-03-30T19:52:50.434Z,0.50
2023-03-30T19:55:19.090Z,0.45
2023-03-30T19:57:45.900Z,0.55
2023-03-30T20:00:18.193Z,0.60
2023-03-30T20:02:48.414Z,0.50
2023-03-30T20:05:15.969Z,0.52
2023-03-30T20:07:44.698Z,0.50
2023-03-30T20:10:23.389Z,0.63
2023-03-30T20:12:51.272Z,0.60
2023-03-30T20:15:19.220Z,0.40
2023-03-30T20:17:45.947Z,0.60
2023-03-30T20:20:17.036Z,0.40
2023-03-30T20:22:44.700Z,0.50
2023-03-30T20:25:14.002Z,0.50
2023-03-30T20:30:08.703Z,0.60
2023-03-30T20:32:35.725Z,0.57
2023-03-30T20:35:02.669Z,0.82
2023-03-30T20:37:29.264Z,0.52
2023-03-30T20:40:03.529Z,0.82
2023-03-30T20:42:31.910Z,0.60
2023-03-30T20:44:59.642Z,0.80
2023-03-30T20:47:30.447Z,0.70
2023-03-30T20:49:58.339Z,0.70
2023-03-30T20:52:25.649Z,0.70
2023-03-30T20:54:53.017Z,0.63
2023-03-30T20:57:21.443Z,0.60
2023-03-30T20:59:49.282Z,0.73
2023-03-30T21:02:16.690Z,0.60
2023-03-30T21:04:44.321Z,0.70
2023-03-30T21:07:12.704Z,0.80
2023-03-30T21:09:40.558Z,0.50
2023-03-30T21:12:09.769Z,0.70
2023-03-30T21:14:36.795Z,0.70
2023-03-30T21:17:03.821Z,0.50
2023-03-30T21:19:30.639Z,0.60
2023-03-30T21:21:57.849Z,0.60
2023-03-30T21:24:24.554Z,0.70
2023-03-30T21:26:51.542Z,0.63
2023-03-30T21:29:18.384Z,0.60
2023-03-30T21:31:45.094Z,0.70
2023-03-30T21:34:12.657Z,0.65
2023-03-30T21:36:39.732Z,0.50
2023-03-30T21:39:06.586Z,0.65
2023-03-30T21:41:33.384Z,0.70
2023-03-30T21:44:00.124Z,0.70
2023-03-30T21:46:26.999Z,0.90
2023-03-30T21:48:54.670Z,0.52
2023-03-30T21:51:29.458Z,0.40
2023-03-30T21:53:57.262Z,0.50
2023-03-30T21:56:27.635Z,0.60
2023-03-30T21:58:54.522Z,0.70
2023-03-30T22:01:25.996Z,0.50
2023-03-30T22:03:54.551Z,0.60
2023-03-30T22:06:22.451Z,0.50
2023-03-30T22:08:49.494Z,0.60
2023-03-30T22:11:22.083Z,0.52
2023-03-30T22:13:49.789Z,0.50
2023-03-30T22:16:19.092Z,0.80
2023-03-30T22:21:16.111Z,0.50
2023-03-30T22:23:43.303Z,0.68
2023-03-30T22:26:11.530Z,0.50
2023-03-30T22:28:38.677Z,0.60
2023-03-30T22:31:10.307Z,0.63
2023-03-30T22:33:37.502Z,0.40
2023-03-30T22:36:05.307Z,0.65
2023-03-30T22:38:32.387Z,0.47
2023-03-30T22:41:06.359Z,0.68
2023-03-30T22:43:34.586Z,0.63
2023-03-30T22:46:01.434Z,0.70
2023-03-30T22:48:28.204Z,0.60
2023-03-30T22:50:56.943Z,0.60
2023-03-30T22:53:23.740Z,0.60
2023-03-30T22:55:50.620Z,0.95
2023-03-30T22:58:17.176Z,0.60
2023-03-30T23:00:44.182Z,0.50
2023-03-30T23:03:11.979Z,0.63
2023-03-30T23:05:39.081Z,0.52
2023-03-30T23:08:06.505Z,0.63
2023-03-30T23:10:37.512Z,0.60
2023-03-30T23:13:04.831Z,0.50
2023-03-30T23:15:32.258Z,0.63
2023-03-30T23:17:59.704Z,0.63
2023-03-30T23:20:26.618Z,0.57
2023-03-30T23:22:53.300Z,0.88
2023-03-30T23:25:20.979Z,0.73
2023-03-30T23:27:47.741Z,0.60
2023-03-30T23:30:17.164Z,0.73
2023-03-30T23:32:43.958Z,1.00
2023-03-30T23:35:10.633Z,0.50
2023-03-30T23:37:37.370Z,0.60
2023-03-30T23:40:07.596Z,0.55
2023-03-30T23:42:34.510Z,0.63
2023-03-30T23:45:01.408Z,0.70
2023-03-30T23:47:28.341Z,0.73
2023-03-30T23:49:55.158Z,0.50
2023-03-30T23:52:22.011Z,0.60
2023-03-30T23:54:52.400Z,0.50
2023-03-30T23:57:20.508Z,0.73
2023-03-30T23:59:47.485Z,0.80
